createdAt,value
2023-07-24T00:01:37.861Z,100.00
2023-07-24T00:05:39.860Z,100.00
2023-07-24T00:09:41.940Z,100.00
2023-07-24T00:13:43.963Z,100.00
2023-07-24T00:17:46.132Z,100.00
2023-07-24T00:21:48.198Z,100.00
2023-07-24T00:25:50.282Z,100.00
2023-07-24T00:29:52.444Z,100.00
2023-07-24T00:33:54.611Z,100.00
2023-07-24T00:37:56.688Z,100.00
2023-07-24T00:41:58.822Z,100.00
2023-07-24T00:46:00.897Z,100.00
2023-07-24T00:50:03.243Z,100.00
2023-07-24T00:54:07.077Z,100.00
2023-07-24T00:58:12.348Z,100.00
2023-07-24T01:02:14.539Z,100.00
2023-07-24T01:06:20.931Z,100.00
2023-07-24T01:10:28.839Z,100.00
2023-07-24T01:14:56.390Z,100.00
2023-07-24T01:18:58.838Z,100.00
2023-07-24T01:23:23.061Z,100.00
2023-07-24T01:27:25.852Z,100.00
2023-07-24T01:31:28.723Z,100.00
2023-07-24T01:35:33.104Z,100.00
2023-07-24T01:39:36.472Z,100.00
2023-07-24T01:43:38.745Z,100.00
2023-07-24T01:47:41.116Z,100.00
2023-07-24T01:51:43.156Z,100.00
2023-07-24T01:55:45.296Z,100.00
2023-07-24T01:59:47.831Z,100.00
2023-07-24T02:03:50.183Z,100.00
2023-07-24T02:07:52.231Z,100.00
2023-07-24T02:11:57.400Z,100.00
2023-07-24T02:16:01.342Z,100.00
2023-07-24T02:20:04.030Z,100.00
2023-07-24T02:24:18.105Z,100.00
2023-07-24T02:28:20.221Z,100.00
2023-07-24T02:32:25.152Z,100.00
2023-07-24T02:36:27.576Z,100.00
2023-07-24T02:40:29.881Z,100.00
2023-07-24T02:44:35.178Z,100.00
2023-07-24T02:48:38.072Z,100.00
2023-07-24T02:52:40.249Z,100.00
2023-07-24T02:56:42.356Z,100.00
2023-07-24T03:00:44.471Z,100.00
2023-07-24T03:04:46.574Z,100.00
2023-07-24T03:08:48.827Z,100.00
2023-07-24T03:12:50.958Z,100.00
2023-07-24T03:16:53.008Z,100.00
2023-07-24T03:20:55.133Z,100.00
2023-07-24T03:24:57.173Z,100.00
2023-07-24T03:28:59.263Z,100.00
2023-07-24T03:33:02.830Z,100.00
2023-07-24T03:37:07.409Z,100.00
2023-07-24T03:41:09.651Z,100.00
2023-07-24T03:45:11.832Z,100.00
2023-07-24T03:49:14.015Z,100.00
2023-07-24T03:53:16.120Z,100.00
2023-07-24T03:57:18.150Z,100.00
2023-07-24T04:01:20.422Z,100.00
2023-07-24T04:05:22.717Z,100.00
2023-07-24T04:09:24.769Z,100.00
2023-07-24T04:13:26.849Z,100.00
2023-07-24T04:17:28.966Z,100.00
2023-07-24T04:21:31.154Z,100.00
2023-07-24T04:25:33.187Z,100.00
2023-07-24T04:29:35.831Z,100.00
2023-07-24T04:33:37.998Z,100.00
2023-07-24T04:37:40.054Z,100.00
2023-07-24T04:41:42.133Z,100.00
2023-07-24T04:45:44.197Z,100.00
2023-07-24T04:49:46.421Z,100.00
2023-07-24T04:53:48.665Z,100.00
2023-07-24T04:57:50.743Z,100.00
2023-07-24T05:01:52.957Z,100.00
2023-07-24T05:05:57.521Z,100.00
2023-07-24T05:10:00.264Z,100.00
2023-07-24T05:14:02.449Z,100.00
2023-07-24T05:18:04.699Z,100.00
2023-07-24T05:22:07.064Z,100.00
2023-07-24T05:26:09.280Z,100.00
2023-07-24T05:30:11.597Z,100.00
2023-07-24T05:34:13.721Z,100.00
2023-07-24T05:38:15.789Z,100.00
2023-07-24T05:42:18.100Z,100.00
2023-07-24T05:46:20.682Z,100.00
2023-07-24T05:50:24.629Z,100.00
2023-07-24T05:54:28.445Z,100.00
2023-07-24T05:58:32.375Z,100.00
2023-07-24T06:02:34.943Z,100.00
2023-07-24T06:06:37.872Z,100.00
2023-07-24T06:10:40.034Z,100.00
2023-07-24T06:14:42.299Z,100.00
2023-07-24T06:18:44.423Z,100.00
2023-07-24T06:22:46.626Z,100.00
2023-07-24T06:26:48.874Z,100.00
2023-07-24T06:30:54.556Z,100.00
2023-07-24T06:34:56.802Z,100.00
2023-07-24T06:38:59.013Z,100.00
2023-07-24T06:43:01.267Z,100.00
2023-07-24T06:47:03.508Z,100.00
2023-07-24T06:51:05.738Z,100.00
2023-07-24T06:55:08.568Z,100.00
2023-07-24T06:59:10.639Z,100.00
2023-07-24T07:03:16.533Z,100.00
2023-07-24T07:07:18.770Z,100.00
2023-07-24T07:11:21.323Z,100.00
2023-07-24T07:15:23.507Z,100.00
2023-07-24T07:19:25.542Z,100.00
2023-07-24T07:23:27.541Z,100.00
2023-07-24T07:27:29.568Z,100.00
2023-07-24T07:31:31.820Z,100.00
2023-07-24T07:35:34.684Z,100.00
2023-07-24T07:39:37.346Z,100.00
2023-07-24T07:43:40.183Z,99.49
2023-07-24T07:47:42.392Z,100.00
2023-07-24T07:51:44.487Z,99.16
2023-07-24T07:55:46.662Z,99.29
2023-07-24T07:59:48.776Z,97.88
2023-07-24T08:03:51.008Z,95.62
2023-07-24T08:07:53.209Z,93.68
2023-07-24T08:11:55.244Z,92.13
2023-07-24T08:15:57.412Z,91.10
2023-07-24T08:19:59.580Z,88.65
2023-07-24T08:24:03.249Z,86.90
2023-07-24T08:28:06.841Z,85.35
2023-07-24T08:32:09.470Z,84.13
2023-07-24T08:36:13.601Z,83.96
2023-07-24T08:40:16.946Z,84.47
2023-07-24T08:44:21.674Z,84.52
2023-07-24T08:48:24.826Z,85.67
2023-07-24T08:52:35.946Z,85.55
2023-07-24T08:56:40.535Z,83.68
2023-07-24T09:00:42.684Z,82.32
2023-07-24T09:04:50.056Z,80.08
2023-07-24T09:08:59.318Z,79.02
2023-07-24T09:13:05.314Z,81.49
2023-07-24T09:17:09.371Z,79.93
2023-07-24T09:21:14.866Z,80.34
2023-07-24T09:25:17.280Z,81.96
2023-07-24T09:29:19.934Z,83.36
2023-07-24T09:33:35.797Z,73.66
2023-07-24T09:37:37.968Z,81.52
2023-07-24T09:41:41.794Z,82.15
2023-07-24T09:45:46.006Z,81.08
2023-07-24T09:49:49.243Z,81.24
2023-07-24T09:53:59.907Z,80.34
2023-07-24T09:58:02.689Z,79.53
2023-07-24T10:02:05.303Z,78.19
2023-07-24T10:06:11.800Z,77.21
2023-07-24T10:10:14.514Z,77.53
2023-07-24T10:14:17.429Z,76.76
2023-07-24T10:18:26.485Z,63.46
2023-07-24T10:22:29.674Z,72.03
2023-07-24T10:26:32.027Z,73.01
2023-07-24T10:30:41.620Z,75.65
2023-07-24T10:34:43.731Z,73.95
2023-07-24T10:38:45.950Z,73.49
2023-07-24T10:42:48.063Z,72.97
2023-07-24T10:46:50.145Z,71.53
2023-07-24T10:50:54.711Z,70.07
2023-07-24T10:54:57.763Z,68.29
2023-07-24T10:59:04.583Z,65.14
2023-07-24T11:03:10.542Z,67.60
2023-07-24T11:07:12.731Z,68.37
2023-07-24T11:11:35.487Z,67.59
2023-07-24T11:15:38.137Z,67.86
2023-07-24T11:20:14.081Z,68.25
2023-07-24T11:24:18.997Z,67.17
2023-07-24T11:28:21.685Z,68.66
2023-07-24T11:32:23.836Z,58.87
2023-07-24T11:36:26.067Z,67.19
2023-07-24T11:40:38.467Z,65.74
2023-07-24T11:44:41.087Z,66.22
2023-07-24T11:48:43.466Z,60.72
2023-07-24T11:52:51.056Z,66.83
2023-07-24T11:56:53.323Z,70.54
2023-07-24T12:00:56.016Z,70.63
2023-07-24T12:05:01.419Z,69.33
2023-07-24T12:09:08.076Z,70.37
2023-07-24T12:13:10.820Z,69.85
2023-07-24T12:17:19.602Z,63.41
2023-07-24T12:21:21.756Z,64.40
2023-07-24T12:25:24.242Z,63.87
2023-07-24T12:29:26.951Z,63.22
2023-07-24T12:33:29.028Z,64.21
2023-07-24T12:37:31.183Z,63.93
2023-07-24T12:41:33.643Z,61.62
2023-07-24T12:45:36.105Z,61.88
2023-07-24T12:49:38.960Z,62.24
2023-07-24T12:53:44.574Z,60.24
2023-07-24T12:57:52.403Z,59.49
2023-07-24T13:01:54.532Z,58.27
2023-07-24T13:05:56.585Z,58.84
2023-07-24T13:09:58.698Z,57.61
2023-07-24T13:14:00.789Z,57.12
2023-07-24T13:18:13.780Z,56.32
2023-07-24T13:22:24.376Z,57.39
2023-07-24T13:26:26.463Z,53.12
2023-07-24T13:30:28.648Z,57.54
2023-07-24T13:34:30.824Z,57.65
2023-07-24T13:38:33.781Z,57.86
2023-07-24T13:42:36.293Z,58.73
2023-07-24T13:46:40.452Z,59.11
2023-07-24T13:50:42.906Z,59.92
2023-07-24T13:54:45.020Z,59.96
2023-07-24T13:58:47.056Z,59.13
2023-07-24T14:02:49.288Z,56.97
2023-07-24T14:06:51.316Z,56.08
2023-07-24T14:10:53.454Z,56.74
2023-07-24T14:14:55.512Z,51.63
2023-07-24T14:18:57.636Z,57.32
2023-07-24T14:22:59.814Z,56.54
2023-07-24T14:27:02.264Z,56.44
2023-07-24T14:31:05.585Z,51.10
2023-07-24T14:35:08.170Z,55.82
2023-07-24T14:39:10.279Z,55.75
2023-07-24T14:43:12.555Z,55.95
2023-07-24T14:47:14.824Z,56.57
2023-07-24T14:51:16.863Z,56.18
2023-07-24T14:55:18.993Z,55.41
2023-07-24T14:59:21.106Z,54.56
2023-07-24T15:03:24.405Z,55.18
2023-07-24T15:07:26.564Z,54.74
2023-07-24T15:11:28.865Z,55.01
2023-07-24T15:15:31.040Z,55.89
2023-07-24T15:19:33.161Z,57.32
2023-07-24T15:23:35.231Z,58.50
2023-07-24T15:27:37.379Z,59.47
2023-07-24T15:31:42.089Z,60.67
2023-07-24T15:35:44.403Z,62.57
2023-07-24T15:39:46.511Z,64.98
2023-07-24T15:43:48.568Z,65.54
2023-07-24T15:47:50.722Z,65.76
2023-07-24T15:51:52.950Z,67.95
2023-07-24T15:55:55.125Z,70.20
2023-07-24T15:59:57.377Z,75.28
2023-07-24T16:03:59.522Z,79.09
2023-07-24T16:08:02.527Z,79.70
2023-07-24T16:12:04.948Z,80.23
2023-07-24T16:16:07.462Z,82.24
2023-07-24T16:20:10.174Z,83.37
2023-07-24T16:24:12.634Z,95.79
2023-07-24T16:28:14.850Z,87.42
2023-07-24T16:32:17.000Z,87.85
2023-07-24T16:36:19.394Z,89.18
2023-07-24T16:40:21.641Z,93.37
2023-07-24T16:44:33.257Z,94.79
2023-07-24T16:48:35.909Z,96.15
2023-07-24T16:52:38.094Z,96.40
2023-07-24T16:56:40.279Z,96.69
2023-07-24T17:00:42.532Z,100.00
2023-07-24T17:04:44.676Z,100.00
2023-07-24T17:08:47.939Z,100.00
2023-07-24T17:12:50.157Z,100.00
2023-07-24T17:16:52.314Z,100.00
2023-07-24T17:20:54.920Z,100.00
2023-07-24T17:24:57.347Z,100.00
2023-07-24T17:29:02.925Z,100.00
2023-07-24T17:33:05.191Z,100.00
2023-07-24T17:37:07.505Z,99.60
2023-07-24T17:41:10.672Z,98.77
2023-07-24T17:45:15.765Z,98.12
2023-07-24T17:49:17.995Z,98.21
2023-07-24T17:53:20.053Z,98.23
2023-07-24T17:57:22.282Z,98.40
2023-07-24T18:01:24.878Z,98.95
2023-07-24T18:05:27.310Z,98.68
2023-07-24T18:09:29.717Z,98.74
2023-07-24T18:13:31.836Z,99.29
2023-07-24T18:17:36.511Z,100.00
2023-07-24T18:21:39.550Z,100.00
2023-07-24T18:25:41.777Z,100.00
2023-07-24T18:29:46.178Z,100.00
2023-07-24T18:33:48.266Z,100.00
2023-07-24T18:37:50.622Z,100.00
2023-07-24T18:41:52.829Z,100.00
2023-07-24T18:45:58.321Z,100.00
2023-07-24T18:50:00.918Z,100.00
2023-07-24T18:54:03.178Z,100.00
2023-07-24T18:58:05.305Z,100.00
2023-07-24T19:02:07.396Z,100.00
2023-07-24T19:06:09.792Z,100.00
2023-07-24T19:10:15.778Z,100.00
2023-07-24T19:14:18.011Z,100.00
2023-07-24T19:18:20.040Z,100.00
2023-07-24T19:22:22.115Z,100.00
2023-07-24T19:26:24.259Z,100.00
2023-07-24T19:30:26.417Z,100.00
2023-07-24T19:34:28.569Z,100.00
2023-07-24T19:38:30.617Z,100.00
2023-07-24T19:42:32.718Z,98.28
2023-07-24T19:46:34.882Z,94.49
2023-07-24T19:50:37.079Z,89.26
2023-07-24T19:54:39.284Z,87.54
2023-07-24T19:58:41.606Z,86.27
2023-07-24T20:02:43.813Z,86.52
2023-07-24T20:06:46.745Z,83.96
2023-07-24T20:10:50.219Z,79.85
2023-07-24T20:14:52.510Z,73.30
2023-07-24T20:18:54.816Z,70.46
2023-07-24T20:22:57.084Z,66.74
2023-07-24T20:26:59.318Z,65.57
2023-07-24T20:31:01.756Z,64.12
2023-07-24T20:35:04.117Z,57.45
2023-07-24T20:39:06.440Z,56.99
2023-07-24T20:43:10.277Z,57.53
2023-07-24T20:47:12.538Z,58.53
2023-07-24T20:51:21.815Z,56.59
2023-07-24T20:55:23.973Z,58.77
2023-07-24T20:59:26.357Z,58.64
2023-07-24T21:03:28.477Z,57.52
2023-07-24T21:07:30.682Z,57.33
2023-07-24T21:11:33.767Z,57.45
2023-07-24T21:15:36.890Z,56.12
2023-07-24T21:19:39.023Z,55.39
2023-07-24T21:23:41.303Z,55.70
2023-07-24T21:27:43.409Z,55.65
2023-07-24T21:31:45.536Z,55.49
2023-07-24T21:36:02.446Z,53.33
2023-07-24T21:40:05.208Z,56.05
2023-07-24T21:44:07.297Z,55.23
2023-07-24T21:48:09.717Z,53.59
2023-07-24T21:52:12.093Z,52.63
2023-07-24T21:56:14.727Z,52.36
2023-07-24T22:00:16.943Z,52.36
2023-07-24T22:04:19.372Z,51.93
2023-07-24T22:08:21.430Z,51.27
2023-07-24T22:12:23.739Z,50.48
2023-07-24T22:16:25.921Z,48.73
2023-07-24T22:20:39.219Z,48.75
2023-07-24T22:24:42.478Z,49.18
2023-07-24T22:28:44.522Z,48.95
2023-07-24T22:32:46.801Z,48.31
2023-07-24T22:36:48.882Z,49.14
2023-07-24T22:40:50.999Z,49.35
2023-07-24T22:44:53.079Z,49.13
2023-07-24T22:48:55.370Z,49.05
2023-07-24T22:52:57.880Z,48.72
2023-07-24T22:56:59.933Z,48.53
2023-07-24T23:01:02.026Z,47.77
2023-07-24T23:05:08.928Z,49.49
2023-07-24T23:09:13.214Z,50.21
2023-07-24T23:13:15.678Z,50.36
2023-07-24T23:17:17.802Z,49.98
2023-07-24T23:21:19.922Z,49.69
2023-07-24T23:25:22.088Z,49.32
2023-07-24T23:29:24.228Z,49.46
2023-07-24T23:33:26.392Z,49.57
2023-07-24T23:37:28.441Z,50.29
2023-07-24T23:41:31.032Z,50.42
2023-07-24T23:45:34.125Z,50.91
2023-07-24T23:49:36.256Z,52.62
2023-07-24T23:53:38.326Z,54.08
2023-07-24T23:57:40.454Z,53.62
